sensor_id;sensor_type;location;lat;lon;timestamp;P1;durP1;ratioP1;P2;durP2;ratioP2
56429;SDS011;42332;52.136;20.666;2023-01-01T00:01:57;7.78;;;3.63;;
56429;SDS011;42332;52.136;20.666;2023-01-01T00:04:22;10.00;;;3.67;;
56429;SDS011;42332;52.136;20.666;2023-01-01T00:06:47;10.20;;;4.00;;
56429;SDS011;42332;52.136;20.666;2023-01-01T00:09:13;11.15;;;3.70;;
56429;SDS011;42332;52.136;20.666;2023-01-01T00:11:57;8.13;;;3.30;;
56429;SDS011;42332;52.136;20.666;2023-01-01T00:14:22;12.40;;;4.00;;
56429;SDS011;42332;52.136;20.666;2023-01-01T00:16:47;10.63;;;3.97;;
56429;SDS011;42332;52.136;20.666;2023-01-01T00:19:13;14.40;;;4.18;;
56429;SDS011;42332;52.136;20.666;2023-01-01T00:21:38;11.20;;;3.90;;
56429;SDS011;42332;52.136;20.666;2023-01-01T00:24:04;11.13;;;3.42;;
56429;SDS011;42332;52.136;20.666;2023-01-01T00:26:30;8.98;;;3.58;;
56429;SDS011;42332;52.136;20.666;2023-01-01T00:28:56;14.15;;;4.00;;
56429;SDS011;42332;52.136;20.666;2023-01-01T00:31:21;11.18;;;4.70;;
56429;SDS011;42332;52.136;20.666;2023-01-01T00:33:50;12.23;;;3.97;;
56429;SDS011;42332;52.136;20.666;2023-01-01T00:36:17;8.50;;;3.15;;
56429;SDS011;42332;52.136;20.666;2023-01-01T00:38:43;9.20;;;3.85;;
56429;SDS011;42332;52.136;20.666;2023-01-01T00:41:09;8.32;;;3.53;;
56429;SDS011;42332;52.136;20.666;2023-01-01T00:43:36;8.73;;;3.30;;
56429;SDS011;42332;52.136;20.666;2023-01-01T00:46:01;12.50;;;3.63;;
56429;SDS011;42332;52.136;20.666;2023-01-01T00:48:27;12.43;;;3.83;;
56429;SDS011;42332;52.136;20.666;2023-01-01T00:50:53;9.63;;;3.78;;
56429;SDS011;42332;52.136;20.666;2023-01-01T00:53:19;12.10;;;4.15;;
56429;SDS011;42332;52.136;20.666;2023-01-01T00:55:46;14.05;;;3.92;;
56429;SDS011;42332;52.136;20.666;2023-01-01T00:58:12;10.98;;;3.92;;
56429;SDS011;42332;52.136;20.666;2023-01-01T01:00:38;10.20;;;4.43;;
56429;SDS011;42332;52.136;20.666;2023-01-01T01:03:03;7.75;;;3.30;;
56429;SDS011;42332;52.136;20.666;2023-01-01T01:05:29;11.60;;;4.07;;
56429;SDS011;42332;52.136;20.666;2023-01-01T01:07:56;11.90;;;4.43;;
56429;SDS011;42332;52.136;20.666;2023-01-01T01:10:21;10.20;;;3.53;;
56429;SDS011;42332;52.136;20.666;2023-01-01T01:12:46;10.32;;;4.07;;
56429;SDS011;42332;52.136;20.666;2023-01-01T01:15:12;10.88;;;3.53;;
56429;SDS011;42332;52.136;20.666;2023-01-01T01:17:38;7.97;;;3.22;;
56429;SDS011;42332;52.136;20.666;2023-01-01T01:20:03;9.02;;;4.07;;
56429;SDS011;42332;52.136;20.666;2023-01-01T01:22:29;8.93;;;3.50;;
56429;SDS011;42332;52.136;20.666;2023-01-01T01:24:54;11.18;;;4.50;;
56429;SDS011;42332;52.136;20.666;2023-01-01T01:27:20;10.10;;;3.67;;
56429;SDS011;42332;52.136;20.666;2023-01-01T01:29:46;8.27;;;3.33;;
56429;SDS011;42332;52.136;20.666;2023-01-01T01:32:11;9.07;;;3.78;;
56429;SDS011;42332;52.136;20.666;2023-01-01T01:34:36;10.20;;;3.67;;
56429;SDS011;42332;52.136;20.666;2023-01-01T01:37:02;9.35;;;4.05;;
56429;SDS011;42332;52.136;20.666;2023-01-01T01:39:28;14.60;;;5.10;;
56429;SDS011;42332;52.136;20.666;2023-01-01T01:41:53;10.95;;;4.13;;
56429;SDS011;42332;52.136;20.666;2023-01-01T01:47:13;9.10;;;3.20;;
56429;SDS011;42332;52.136;20.666;2023-01-01T01:49:40;12.57;;;4.38;;
56429;SDS011;42332;52.136;20.666;2023-01-01T01:52:07;12.48;;;4.57;;
56429;SDS011;42332;52.136;20.666;2023-01-01T01:54:32;12.80;;;3.70;;
56429;SDS011;42332;52.136;20.666;2023-01-01T01:56:58;9.82;;;3.83;;
56429;SDS011;42332;52.136;20.666;2023-01-01T01:59:27;8.20;;;3.35;;
56429;SDS011;42332;52.136;20.666;2023-01-01T02:01:55;11.18;;;4.22;;
56429;SDS011;42332;52.136;20.666;2023-01-01T02:04:20;11.52;;;4.20;;
56429;SDS011;42332;52.136;20.666;2023-01-01T02:06:46;9.73;;;3.75;;
56429;SDS011;42332;52.136;20.666;2023-01-01T02:09:12;13.65;;;3.67;;
56429;SDS011;42332;52.136;20.666;2023-01-01T02:11:37;11.23;;;4.20;;
56429;SDS011;42332;52.136;20.666;2023-01-01T02:14:03;11.23;;;3.85;;
56429;SDS011;42332;52.136;20.666;2023-01-01T02:16:35;8.10;;;3.17;;
56429;SDS011;42332;52.136;20.666;2023-01-01T02:19:19;8.00;;;3.80;;
56429;SDS011;42332;52.136;20.666;2023-01-01T02:22:13;10.93;;;3.75;;
56429;SDS011;42332;52.136;20.666;2023-01-01T02:30:18;6.95;;;2.90;;
56429;SDS011;42332;52.136;20.666;2023-01-01T02:32:45;10.45;;;3.75;;
56429;SDS011;42332;52.136;20.666;2023-01-01T02:38:09;8.38;;;3.13;;
56429;SDS011;42332;52.136;20.666;2023-01-01T02:40:37;9.60;;;3.45;;
56429;SDS011;42332;52.136;20.666;2023-01-01T02:43:05;8.25;;;3.22;;
56429;SDS011;42332;52.136;20.666;2023-01-01T02:45:31;9.48;;;3.47;;
56429;SDS011;42332;52.136;20.666;2023-01-01T02:47:56;8.93;;;3.15;;
56429;SDS011;42332;52.136;20.666;2023-01-01T02:50:25;8.32;;;3.38;;
56429;SDS011;42332;52.136;20.666;2023-01-01T02:52:55;10.20;;;3.20;;
56429;SDS011;42332;52.136;20.666;2023-01-01T02:55:27;7.82;;;3.15;;
56429;SDS011;42332;52.136;20.666;2023-01-01T02:58:07;8.90;;;3.17;;
56429;SDS011;42332;52.136;20.666;2023-01-01T03:00:57;10.90;;;3.50;;
56429;SDS011;42332;52.136;20.666;2023-01-01T03:03:29;9.38;;;3.42;;
56429;SDS011;42332;52.136;20.666;2023-01-01T03:06:49;6.70;;;3.10;;
56429;SDS011;42332;52.136;20.666;2023-01-01T03:12:01;7.07;;;3.05;;
56429;SDS011;42332;52.136;20.666;2023-01-01T03:15:14;7.75;;;2.90;;
56429;SDS011;42332;52.136;20.666;2023-01-01T03:17:24;10.65;;;3.05;;
56429;SDS011;42332;52.136;20.666;2023-01-01T03:19:55;11.65;;;3.72;;
56429;SDS011;42332;52.136;20.666;2023-01-01T03:22:23;9.95;;;3.50;;
56429;SDS011;42332;52.136;20.666;2023-01-01T03:25:00;9.38;;;3.72;;
56429;SDS011;42332;52.136;20.666;2023-01-01T03:27:40;10.27;;;3.47;;
56429;SDS011;42332;52.136;20.666;2023-01-01T03:30:09;7.88;;;3.30;;
56429;SDS011;42332;52.136;20.666;2023-01-01T03:32:54;10.27;;;3.47;;
56429;SDS011;42332;52.136;20.666;2023-01-01T03:35:25;8.05;;;3.63;;
56429;SDS011;42332;52.136;20.666;2023-01-01T03:37:52;7.00;;;2.83;;
56429;SDS011;42332;52.136;20.666;2023-01-01T03:40:19;12.73;;;3.50;;
56429;SDS011;42332;52.136;20.666;2023-01-01T03:42:47;9.80;;;3.58;;
56429;SDS011;42332;52.136;20.666;2023-01-01T03:47:44;6.75;;;3.10;;
56429;SDS011;42332;52.136;20.666;2023-01-01T03:50:09;7.20;;;3.13;;
56429;SDS011;42332;52.136;20.666;2023-01-01T03:52:55;6.68;;;2.67;;
56429;SDS011;42332;52.136;20.666;2023-01-01T03:55:27;8.85;;;3.63;;
56429;SDS011;42332;52.136;20.666;2023-01-01T03:58:01;8.32;;;3.20;;
56429;SDS011;42332;52.136;20.666;2023-01-01T04:00:41;8.15;;;2.80;;
56429;SDS011;42332;52.136;20.666;2023-01-01T04:05:40;8.02;;;2.67;;
56429;SDS011;42332;52.136;20.666;2023-01-01T04:08:06;7.03;;;2.67;;
56429;SDS011;42332;52.136;20.666;2023-01-01T04:10:33;7.50;;;3.22;;
56429;SDS011;42332;52.136;20.666;2023-01-01T04:13:01;7.75;;;2.67;;
56429;SDS011;42332;52.136;20.666;2023-01-01T04:15:27;9.25;;;3.10;;
56429;SDS011;42332;52.136;20.666;2023-01-01T04:17:53;5.53;;;1.95;;
56429;SDS011;42332;52.136;20.666;2023-01-01T04:20:19;6.00;;;2.60;;
56429;SDS011;42332;52.136;20.666;2023-01-01T04:22:45;9.15;;;3.13;;
56429;SDS011;42332;52.136;20.666;2023-01-01T04:25:10;7.97;;;2.92;;
56429;SDS011;42332;52.136;20.666;2023-01-01T04:27:36;7.32;;;2.97;;
56429;SDS011;42332;52.136;20.666;2023-01-01T04:30:06;7.97;;;2.92;;
56429;SDS011;42332;52.136;20.666;2023-01-01T04:32:32;6.90;;;3.15;;
56429;SDS011;42332;52.136;20.666;2023-01-01T04:34:58;5.97;;;2.53;;
56429;SDS011;42332;52.136;20.666;2023-01-01T04:37:24;7.00;;;3.17;;
56429;SDS011;42332;52.136;20.666;2023-01-01T04:39:49;7.45;;;2.90;;
56429;SDS011;42332;52.136;20.666;2023-01-01T04:42:14;8.20;;;2.90;;
56429;SDS011;42332;52.136;20.666;2023-01-01T04:44:39;8.38;;;2.75;;
56429;SDS011;42332;52.136;20.666;2023-01-01T04:47:05;8.00;;;2.92;;
56429;SDS011;42332;52.136;20.666;2023-01-01T04:49:30;5.93;;;2.30;;
56429;SDS011;42332;52.136;20.666;2023-01-01T04:51:55;9.93;;;3.20;;
56429;SDS011;42332;52.136;20.666;2023-01-01T04:54:21;9.63;;;3.33;;
56429;SDS011;42332;52.136;20.666;2023-01-01T04:56:46;8.70;;;2.95;;
56429;SDS011;42332;52.136;20.666;2023-01-01T04:59:11;5.30;;;2.30;;
56429;SDS011;42332;52.136;20.666;2023-01-01T05:01:37;7.75;;;3.13;;
56429;SDS011;42332;52.136;20.666;2023-01-01T05:04:02;12.07;;;3.53;;
56429;SDS011;42332;52.136;20.666;2023-01-01T05:06:28;9.48;;;3.30;;
56429;SDS011;42332;52.136;20.666;2023-01-01T05:08:54;7.07;;;2.92;;
56429;SDS011;42332;52.136;20.666;2023-01-01T05:11:23;10.32;;;3.03;;
56429;SDS011;42332;52.136;20.666;2023-01-01T05:13:51;6.13;;;2.78;;
56429;SDS011;42332;52.136;20.666;2023-01-01T05:16:22;11.90;;;3.05;;
56429;SDS011;42332;52.136;20.666;2023-01-01T05:18:48;8.98;;;3.30;;
56429;SDS011;42332;52.136;20.666;2023-01-01T05:21:18;6.50;;;2.38;;
56429;SDS011;42332;52.136;20.666;2023-01-01T05:23:47;8.70;;;3.20;;
56429;SDS011;42332;52.136;20.666;2023-01-01T05:26:14;6.22;;;2.80;;
56429;SDS011;42332;52.136;20.666;2023-01-01T05:28:43;7.10;;;2.80;;
56429;SDS011;42332;52.136;20.666;2023-01-01T05:31:10;7.40;;;2.35;;
56429;SDS011;42332;52.136;20.666;2023-01-01T05:33:37;7.72;;;2.58;;
56429;SDS011;42332;52.136;20.666;2023-01-01T05:36:04;6.90;;;2.83;;
56429;SDS011;42332;52.136;20.666;2023-01-01T05:38:30;8.20;;;2.90;;
56429;SDS011;42332;52.136;20.666;2023-01-01T05:40:56;8.45;;;2.88;;
56429;SDS011;42332;52.136;20.666;2023-01-01T05:43:22;7.70;;;2.97;;
56429;SDS011;42332;52.136;20.666;2023-01-01T05:45:47;6.32;;;2.60;;
56429;SDS011;42332;52.136;20.666;2023-01-01T05:48:12;6.55;;;3.13;;
56429;SDS011;42332;52.136;20.666;2023-01-01T05:50:38;7.82;;;2.85;;
56429;SDS011;42332;52.136;20.666;2023-01-01T05:53:03;10.10;;;2.55;;
56429;SDS011;42332;52.136;20.666;2023-01-01T05:55:29;5.88;;;2.05;;
56429;SDS011;42332;52.136;20.666;2023-01-01T05:57:55;8.05;;;2.47;;
56429;SDS011;42332;52.136;20.666;2023-01-01T06:00:20;6.70;;;2.60;;
56429;SDS011;42332;52.136;20.666;2023-01-01T06:02:46;10.88;;;3.08;;
56429;SDS011;42332;52.136;20.666;2023-01-01T06:05:13;6.57;;;2.30;;
56429;SDS011;42332;52.136;20.666;2023-01-01T06:07:39;7.35;;;2.80;;
56429;SDS011;42332;52.136;20.666;2023-01-01T06:10:04;5.85;;;2.58;;
56429;SDS011;42332;52.136;20.666;2023-01-01T06:12:30;21.30;;;3.05;;
56429;SDS011;42332;52.136;20.666;2023-01-01T06:14:55;10.02;;;2.90;;
56429;SDS011;42332;52.136;20.666;2023-01-01T06:17:20;7.90;;;2.80;;
56429;SDS011;42332;52.136;20.666;2023-01-01T06:19:46;7.53;;;2.78;;
56429;SDS011;42332;52.136;20.666;2023-01-01T06:22:12;8.48;;;2.75;;
56429;SDS011;42332;52.136;20.666;2023-01-01T06:24:37;6.50;;;2.45;;
56429;SDS011;42332;52.136;20.666;2023-01-01T06:27:03;6.13;;;2.35;;
56429;SDS011;42332;52.136;20.666;2023-01-01T06:29:28;7.68;;;3.33;;
56429;SDS011;42332;52.136;20.666;2023-01-01T06:31:53;7.38;;;2.55;;
56429;SDS011;42332;52.136;20.666;2023-01-01T06:34:18;8.25;;;2.88;;
56429;SDS011;42332;52.136;20.666;2023-01-01T06:36:44;7.53;;;2.60;;
56429;SDS011;42332;52.136;20.666;2023-01-01T06:39:09;5.97;;;2.35;;
56429;SDS011;42332;52.136;20.666;2023-01-01T06:41:35;7.00;;;2.70;;
56429;SDS011;42332;52.136;20.666;2023-01-01T06:44:00;7.18;;;2.42;;
56429;SDS011;42332;52.136;20.666;2023-01-01T06:48:55;8.13;;;2.28;;
56429;SDS011;42332;52.136;20.666;2023-01-01T06:51:23;7.70;;;2.78;;
56429;SDS011;42332;52.136;20.666;2023-01-01T06:53:50;11.73;;;2.83;;
56429;SDS011;42332;52.136;20.666;2023-01-01T06:56:16;8.48;;;2.92;;
56429;SDS011;42332;52.136;20.666;2023-01-01T06:58:42;6.28;;;2.78;;
56429;SDS011;42332;52.136;20.666;2023-01-01T07:01:15;9.23;;;2.70;;
56429;SDS011;42332;52.136;20.666;2023-01-01T07:03:43;8.30;;;3.00;;
56429;SDS011;42332;52.136;20.666;2023-01-01T07:06:13;7.43;;;2.50;;
56429;SDS011;42332;52.136;20.666;2023-01-01T07:08:38;6.93;;;2.40;;
56429;SDS011;42332;52.136;20.666;2023-01-01T07:11:04;6.57;;;2.33;;
56429;SDS011;42332;52.136;20.666;2023-01-01T07:13:29;8.77;;;2.78;;
56429;SDS011;42332;52.136;20.666;2023-01-01T07:15:55;8.82;;;2.92;;
56429;SDS011;42332;52.136;20.666;2023-01-01T07:18:21;6.53;;;2.45;;
56429;SDS011;42332;52.136;20.666;2023-01-01T07:20:49;10.30;;;2.63;;
56429;SDS011;42332;52.136;20.666;2023-01-01T07:23:15;6.03;;;2.08;;
56429;SDS011;42332;52.136;20.666;2023-01-01T07:25:41;7.57;;;2.75;;
56429;SDS011;42332;52.136;20.666;2023-01-01T07:28:06;10.25;;;3.10;;
56429;SDS011;42332;52.136;20.666;2023-01-01T07:30:32;7.35;;;2.50;;
56429;SDS011;42332;52.136;20.666;2023-01-01T07:32:57;8.77;;;3.20;;
56429;SDS011;42332;52.136;20.666;2023-01-01T07:35:22;10.07;;;2.88;;
56429;SDS011;42332;52.136;20.666;2023-01-01T07:37:48;7.50;;;2.50;;
56429;SDS011;42332;52.136;20.666;2023-01-01T07:40:13;7.55;;;2.65;;
56429;SDS011;42332;52.136;20.666;2023-01-01T07:42:38;8.85;;;2.70;;
56429;SDS011;42332;52.136;20.666;2023-01-01T07:45:04;8.52;;;2.22;;
56429;SDS011;42332;52.136;20.666;2023-01-01T07:47:29;7.60;;;2.88;;
56429;SDS011;42332;52.136;20.666;2023-01-01T07:49:55;5.90;;;2.30;;
56429;SDS011;42332;52.136;20.666;2023-01-01T07:52:20;6.32;;;2.20;;
56429;SDS011;42332;52.136;20.666;2023-01-01T07:54:45;6.18;;;2.20;;
56429;SDS011;42332;52.136;20.666;2023-01-01T07:57:11;5.10;;;2.17;;
56429;SDS011;42332;52.136;20.666;2023-01-01T07:59:36;8.55;;;3.05;;
56429;SDS011;42332;52.136;20.666;2023-01-01T08:02:02;11.57;;;3.28;;
56429;SDS011;42332;52.136;20.666;2023-01-01T08:04:27;9.15;;;3.25;;
56429;SDS011;42332;52.136;20.666;2023-01-01T08:06:53;8.25;;;2.80;;
56429;SDS011;42332;52.136;20.666;2023-01-01T08:09:18;9.25;;;3.15;;
56429;SDS011;42332;52.136;20.666;2023-01-01T08:11:44;7.03;;;2.65;;
56429;SDS011;42332;52.136;20.666;2023-01-01T08:14:09;11.30;;;3.17;;
56429;SDS011;42332;52.136;20.666;2023-01-01T08:16:35;7.03;;;2.70;;
56429;SDS011;42332;52.136;20.666;2023-01-01T08:19:00;10.50;;;3.40;;
56429;SDS011;42332;52.136;20.666;2023-01-01T08:21:25;26.33;;;7.88;;
56429;SDS011;42332;52.136;20.666;2023-01-01T08:23:51;14.45;;;4.55;;
56429;SDS011;42332;52.136;20.666;2023-01-01T08:26:16;21.33;;;6.72;;
56429;SDS011;42332;52.136;20.666;2023-01-01T08:28:43;12.07;;;3.10;;
56429;SDS011;42332;52.136;20.666;2023-01-01T08:31:08;7.22;;;2.80;;
56429;SDS011;42332;52.136;20.666;2023-01-01T08:33:34;8.55;;;2.90;;
56429;SDS011;42332;52.136;20.666;2023-01-01T08:35:59;9.70;;;3.03;;
56429;SDS011;42332;52.136;20.666;2023-01-01T08:38:24;12.27;;;3.55;;
56429;SDS011;42332;52.136;20.666;2023-01-01T08:40:50;9.50;;;2.97;;
56429;SDS011;42332;52.136;20.666;2023-01-01T08:43:15;11.95;;;3.00;;
56429;SDS011;42332;52.136;20.666;2023-01-01T08:45:41;7.88;;;2.47;;
56429;SDS011;42332;52.136;20.666;2023-01-01T08:48:06;11.40;;;3.17;;
56429;SDS011;42332;52.136;20.666;2023-01-01T08:50:32;10.27;;;2.58;;
56429;SDS011;42332;52.136;20.666;2023-01-01T08:52:57;10.70;;;2.28;;
56429;SDS011;42332;52.136;20.666;2023-01-01T08:55:23;11.02;;;2.80;;
56429;SDS011;42332;52.136;20.666;2023-01-01T08:57:48;12.95;;;3.10;;
56429;SDS011;42332;52.136;20.666;2023-01-01T09:00:13;10.55;;;2.80;;
56429;SDS011;42332;52.136;20.666;2023-01-01T09:02:40;8.50;;;2.45;;
56429;SDS011;42332;52.136;20.666;2023-01-01T09:05:06;10.85;;;2.80;;
56429;SDS011;42332;52.136;20.666;2023-01-01T09:07:31;10.90;;;2.55;;
56429;SDS011;42332;52.136;20.666;2023-01-01T09:09:56;4.90;;;1.73;;
56429;SDS011;42332;52.136;20.666;2023-01-01T09:12:22;11.32;;;2.17;;
56429;SDS011;42332;52.136;20.666;2023-01-01T09:14:47;9.40;;;2.72;;
56429;SDS011;42332;52.136;20.666;2023-01-01T09:17:13;12.90;;;2.17;;
56429;SDS011;42332;52.136;20.666;2023-01-01T09:19:38;8.50;;;2.25;;
56429;SDS011;42332;52.136;20.666;2023-01-01T09:22:03;7.25;;;3.08;;
56429;SDS011;42332;52.136;20.666;2023-01-01T09:24:33;8.32;;;2.28;;
56429;SDS011;42332;52.136;20.666;2023-01-01T09:26:58;9.95;;;2.58;;
56429;SDS011;42332;52.136;20.666;2023-01-01T09:29:23;11.00;;;2.72;;
56429;SDS011;42332;52.136;20.666;2023-01-01T09:31:49;9.85;;;2.78;;
56429;SDS011;42332;52.136;20.666;2023-01-01T09:34:14;15.35;;;2.92;;
56429;SDS011;42332;52.136;20.666;2023-01-01T09:36:40;9.23;;;2.00;;
56429;SDS011;42332;52.136;20.666;2023-01-01T09:39:05;9.30;;;2.28;;
56429;SDS011;42332;52.136;20.666;2023-01-01T09:41:35;12.27;;;2.70;;
56429;SDS011;42332;52.136;20.666;2023-01-01T09:47:01;18.03;;;2.70;;
56429;SDS011;42332;52.136;20.666;2023-01-01T09:49:33;12.02;;;2.33;;
56429;SDS011;42332;52.136;20.666;2023-01-01T09:51:59;20.77;;;4.22;;
56429;SDS011;42332;52.136;20.666;2023-01-01T09:54:33;5.40;;;2.03;;
56429;SDS011;42332;52.136;20.666;2023-01-01T09:57:05;7.05;;;2.20;;
56429;SDS011;42332;52.136;20.666;2023-01-01T09:59:34;7.43;;;2.38;;
56429;SDS011;42332;52.136;20.666;2023-01-01T10:02:22;12.20;;;2.95;;
56429;SDS011;42332;52.136;20.666;2023-01-01T10:07:43;11.82;;;3.28;;
56429;SDS011;42332;52.136;20.666;2023-01-01T10:10:24;11.88;;;3.38;;
56429;SDS011;42332;52.136;20.666;2023-01-01T10:15:32;14.27;;;3.03;;
56429;SDS011;42332;52.136;20.666;2023-01-01T10:18:02;9.20;;;2.78;;
56429;SDS011;42332;52.136;20.666;2023-01-01T10:23:07;9.85;;;2.53;;
56429;SDS011;42332;52.136;20.666;2023-01-01T10:25:36;20.00;;;3.25;;
56429;SDS011;42332;52.136;20.666;2023-01-01T10:28:05;10.88;;;2.92;;
56429;SDS011;42332;52.136;20.666;2023-01-01T10:30:34;10.85;;;2.90;;
56429;SDS011;42332;52.136;20.666;2023-01-01T10:33:00;7.65;;;2.40;;
56429;SDS011;42332;52.136;20.666;2023-01-01T10:35:27;8.23;;;2.60;;
56429;SDS011;42332;52.136;20.666;2023-01-01T10:38:00;15.40;;;2.45;;
56429;SDS011;42332;52.136;20.666;2023-01-01T10:40:26;12.00;;;2.35;;
56429;SDS011;42332;52.136;20.666;2023-01-01T10:42:53;6.03;;;2.15;;
56429;SDS011;42332;52.136;20.666;2023-01-01T10:45:28;9.05;;;2.65;;
56429;SDS011;42332;52.136;20.666;2023-01-01T10:48:12;11.18;;;2.45;;
56429;SDS011;42332;52.136;20.666;2023-01-01T10:50:52;9.02;;;2.47;;
56429;SDS011;42332;52.136;20.666;2023-01-01T10:58:33;7.50;;;2.47;;
56429;SDS011;42332;52.136;20.666;2023-01-01T11:01:06;11.13;;;2.70;;
56429;SDS011;42332;52.136;20.666;2023-01-01T11:03:36;8.18;;;2.47;;
56429;SDS011;42332;52.136;20.666;2023-01-01T11:08:54;12.10;;;3.33;;
56429;SDS011;42332;52.136;20.666;2023-01-01T11:11:21;18.58;;;4.43;;
56429;SDS011;42332;52.136;20.666;2023-01-01T11:13:51;21.23;;;5.35;;
56429;SDS011;42332;52.136;20.666;2023-01-01T11:16:18;13.50;;;4.75;;
56429;SDS011;42332;52.136;20.666;2023-01-01T11:18:43;9.52;;;3.53;;
56429;SDS011;42332;52.136;20.666;2023-01-01T11:21:09;17.40;;;2.92;;
56429;SDS011;42332;52.136;20.666;2023-01-01T11:23:36;11.60;;;2.78;;
56429;SDS011;42332;52.136;20.666;2023-01-01T11:28:30;10.07;;;2.95;;
56429;SDS011;42332;52.136;20.666;2023-01-01T11:30:59;10.13;;;2.40;;
56429;SDS011;42332;52.136;20.666;2023-01-01T11:33:53;10.60;;;2.40;;
56429;SDS011;42332;52.136;20.666;2023-01-01T11:36:29;9.20;;;2.77;;
56429;SDS011;42332;52.136;20.666;2023-01-01T11:41:39;24.65;;;2.58;;
56429;SDS011;42332;52.136;20.666;2023-01-01T11:44:05;5.78;;;2.10;;
56429;SDS011;42332;52.136;20.666;2023-01-01T11:46:32;11.80;;;2.58;;
56429;SDS011;42332;52.136;20.666;2023-01-01T11:48:57;11.80;;;3.03;;
56429;SDS011;42332;52.136;20.666;2023-01-01T11:51:32;9.38;;;2.10;;
56429;SDS011;42332;52.136;20.666;2023-01-01T11:54:08;9.02;;;3.45;;
56429;SDS011;42332;52.136;20.666;2023-01-01T11:56:35;8.50;;;2.65;;
56429;SDS011;42332;52.136;20.666;2023-01-01T11:59:13;11.27;;;2.30;;
56429;SDS011;42332;52.136;20.666;2023-01-01T12:01:43;5.75;;;1.95;;
56429;SDS011;42332;52.136;20.666;2023-01-01T12:07:06;11.55;;;2.63;;
56429;SDS011;42332;52.136;20.666;2023-01-01T12:12:14;9.10;;;2.47;;
56429;SDS011;42332;52.136;20.666;2023-01-01T12:14:56;13.57;;;2.97;;
56429;SDS011;42332;52.136;20.666;2023-01-01T12:18:03;12.80;;;2.40;;
56429;SDS011;42332;52.136;20.666;2023-01-01T12:20:40;8.57;;;3.08;;
56429;SDS011;42332;52.136;20.666;2023-01-01T12:23:08;8.73;;;3.03;;
56429;SDS011;42332;52.136;20.666;2023-01-01T12:25:37;10.82;;;2.28;;
56429;SDS011;42332;52.136;20.666;2023-01-01T12:30:56;7.63;;;2.42;;
56429;SDS011;42332;52.136;20.666;2023-01-01T12:36:02;11.55;;;3.50;;
56429;SDS011;42332;52.136;20.666;2023-01-01T12:58:50;12.82;;;3.13;;
56429;SDS011;42332;52.136;20.666;2023-01-01T13:01:18;10.63;;;3.20;;
56429;SDS011;42332;52.136;20.666;2023-01-01T13:03:53;8.82;;;2.70;;
56429;SDS011;42332;52.136;20.666;2023-01-01T13:06:25;8.60;;;2.80;;
56429;SDS011;42332;52.136;20.666;2023-01-01T13:09:14;8.48;;;3.13;;
56429;SDS011;42332;52.136;20.666;2023-01-01T13:11:56;6.45;;;2.63;;
56429;SDS011;42332;52.136;20.666;2023-01-01T13:14:24;10.95;;;2.75;;
56429;SDS011;42332;52.136;20.666;2023-01-01T13:16:51;9.75;;;2.97;;
56429;SDS011;42332;52.136;20.666;2023-01-01T13:19:33;8.15;;;3.30;;
56429;SDS011;42332;52.136;20.666;2023-01-01T13:30:44;6.90;;;2.88;;
56429;SDS011;42332;52.136;20.666;2023-01-01T13:38:49;13.68;;;3.05;;
56429;SDS011;42332;52.136;20.666;2023-01-01T13:41:57;7.93;;;2.92;;
56429;SDS011;42332;52.136;20.666;2023-01-01T13:57:14;18.45;;;3.22;;
56429;SDS011;42332;52.136;20.666;2023-01-01T13:59:48;11.15;;;3.00;;
56429;SDS011;42332;52.136;20.666;2023-01-01T14:02:21;9.68;;;3.25;;
56429;SDS011;42332;52.136;20.666;2023-01-01T14:09:46;16.88;;;3.22;;
56429;SDS011;42332;52.136;20.666;2023-01-01T14:12:15;10.30;;;3.70;;
56429;SDS011;42332;52.136;20.666;2023-01-01T14:14:42;12.02;;;3.30;;
56429;SDS011;42332;52.136;20.666;2023-01-01T14:17:07;7.82;;;3.00;;
56429;SDS011;42332;52.136;20.666;2023-01-01T14:19:32;8.60;;;2.85;;
56429;SDS011;42332;52.136;20.666;2023-01-01T14:21:58;8.68;;;3.28;;
56429;SDS011;42332;52.136;20.666;2023-01-01T14:24:24;9.80;;;3.42;;
56429;SDS011;42332;52.136;20.666;2023-01-01T14:26:50;10.45;;;3.72;;
56429;SDS011;42332;52.136;20.666;2023-01-01T14:29:29;16.10;;;3.83;;
56429;SDS011;42332;52.136;20.666;2023-01-01T14:31:59;10.10;;;3.72;;
56429;SDS011;42332;52.136;20.666;2023-01-01T14:34:29;14.82;;;3.97;;
56429;SDS011;42332;52.136;20.666;2023-01-01T14:37:00;9.45;;;3.63;;
56429;SDS011;42332;52.136;20.666;2023-01-01T14:39:28;15.05;;;4.40;;
56429;SDS011;42332;52.136;20.666;2023-01-01T14:47:08;9.60;;;3.58;;
56429;SDS011;42332;52.136;20.666;2023-01-01T14:49:42;13.68;;;4.20;;
56429;SDS011;42332;52.136;20.666;2023-01-01T14:52:21;12.05;;;4.22;;
56429;SDS011;42332;52.136;20.666;2023-01-01T14:54:48;11.18;;;3.80;;
56429;SDS011;42332;52.136;20.666;2023-01-01T14:57:15;14.90;;;4.60;;
56429;SDS011;42332;52.136;20.666;2023-01-01T14:59:47;10.85;;;4.30;;
56429;SDS011;42332;52.136;20.666;2023-01-01T15:02:18;10.23;;;4.35;;
56429;SDS011;42332;52.136;20.666;2023-01-01T15:04:45;9.40;;;3.53;;
56429;SDS011;42332;52.136;20.666;2023-01-01T15:09:53;10.57;;;4.57;;
56429;SDS011;42332;52.136;20.666;2023-01-01T15:12:20;14.52;;;4.53;;
56429;SDS011;42332;52.136;20.666;2023-01-01T15:14:47;15.07;;;5.03;;
56429;SDS011;42332;52.136;20.666;2023-01-01T15:17:14;12.60;;;4.82;;
56429;SDS011;42332;52.136;20.666;2023-01-01T15:19:42;9.38;;;4.28;;
56429;SDS011;42332;52.136;20.666;2023-01-01T15:24:43;11.52;;;4.32;;
56429;SDS011;42332;52.136;20.666;2023-01-01T15:27:13;11.60;;;3.63;;
56429;SDS011;42332;52.136;20.666;2023-01-01T15:29:45;9.93;;;3.92;;
56429;SDS011;42332;52.136;20.666;2023-01-01T15:32:14;9.80;;;3.30;;
56429;SDS011;42332;52.136;20.666;2023-01-01T15:34:50;13.52;;;4.80;;
56429;SDS011;42332;52.136;20.666;2023-01-01T15:37:30;18.58;;;6.43;;
56429;SDS011;42332;52.136;20.666;2023-01-01T15:42:38;18.10;;;7.00;;
56429;SDS011;42332;52.136;20.666;2023-01-01T15:47:49;10.15;;;3.75;;
56429;SDS011;42332;52.136;20.666;2023-01-01T15:50:20;9.60;;;3.70;;
56429;SDS011;42332;52.136;20.666;2023-01-01T15:52:46;11.77;;;4.20;;
56429;SDS011;42332;52.136;20.666;2023-01-01T15:55:19;9.50;;;4.03;;
56429;SDS011;42332;52.136;20.666;2023-01-01T15:57:45;9.88;;;3.70;;
56429;SDS011;42332;52.136;20.666;2023-01-01T16:00:22;9.80;;;4.03;;
56429;SDS011;42332;52.136;20.666;2023-01-01T16:02:49;13.13;;;4.10;;
56429;SDS011;42332;52.136;20.666;2023-01-01T16:05:17;10.85;;;3.72;;
56429;SDS011;42332;52.136;20.666;2023-01-01T16:07:44;11.70;;;3.92;;
56429;SDS011;42332;52.136;20.666;2023-01-01T16:10:14;11.95;;;4.05;;
56429;SDS011;42332;52.136;20.666;2023-01-01T16:12:40;10.73;;;3.88;;
56429;SDS011;42332;52.136;20.666;2023-01-01T16:15:06;8.27;;;4.00;;
56429;SDS011;42332;52.136;20.666;2023-01-01T16:17:32;12.80;;;4.80;;
56429;SDS011;42332;52.136;20.666;2023-01-01T16:19:57;15.05;;;5.20;;
56429;SDS011;42332;52.136;20.666;2023-01-01T16:22:23;12.65;;;3.90;;
56429;SDS011;42332;52.136;20.666;2023-01-01T16:24:48;13.95;;;4.57;;
56429;SDS011;42332;52.136;20.666;2023-01-01T16:27:14;11.48;;;4.00;;
56429;SDS011;42332;52.136;20.666;2023-01-01T16:29:39;10.48;;;4.20;;
56429;SDS011;42332;52.136;20.666;2023-01-01T16:32:04;13.40;;;4.70;;
56429;SDS011;42332;52.136;20.666;2023-01-01T16:34:30;17.27;;;6.47;;
56429;SDS011;42332;52.136;20.666;2023-01-01T16:36:55;13.48;;;4.68;;
56429;SDS011;42332;52.136;20.666;2023-01-01T16:39:20;15.40;;;5.80;;
56429;SDS011;42332;52.136;20.666;2023-01-01T16:41:46;13.85;;;5.97;;